Point of Pines, MA

9:39 PM EST on January 20, 2017 (GMT -0500)
| | Change Station
Active Advisory: Gale Watch

Elev -9999 ft 0.00 °N, 0.00 °E | Updated 0 second ago

Overcast
Overcast
°F
Feels Like °F
N
Wind Variable Wind from North
Gusts mph

Today
High -- | Low -- °F
--% Chance of Precip.
Yesterday
High -- | Low -- °F
Precip. -- in
Pressure 29.95 in
Visibility 10.0 miles
Clouds Overcast 3100 ft
Dew Point Not available.
Humidity Not available.
Rainfall --
Snow Depth Not available.
7:07 AM 4:42 PM
Last Quarter, 39% visible
METAR KBOS 210154Z 17006KT 10SM OVC031 04/01 A2995 RMK AO2 SLP141 T00390006
Pressure 29.95 in
Visibility 10.0 miles
Clouds Overcast 3100 ft
Dew Point Not available.
Humidity Not available.
Rainfall --
Snow Depth Not available.
7:07 AM 4:42 PM
Last Quarter, 39% visible
METAR KBOS 210154Z 17006KT 10SM OVC031 04/01 A2995 RMK AO2 SLP141 T00390006

Get Your Daily Forecast Email!

Thanks for signing up!

Be on the lookout for a verification email in your inbox.

You'll start receiving the daily forecast at 8 AM.

×

10-Day Weather Forecast

Almanac

Astronomy

Jan. 20, 2017 Rise Set
Actual Time
Civil Twilight
Nautical Twilight
Astronomical Twilight
Moon
Length of Visible Light
Length of Day
Tomorrow will be .
, % of the Moon is Illuminated

Today's Extremes

State Highs State Lows

Community

WunderPhotos

Upload Photos

1,962,540 photos uploaded!

WunderBlog® & News

Nearby

Air Quality

  Air Quality AQ Index Pollutant
Not available.

Snow Depth

Station Depth Elevation

Earthquake Activity

City Distance Mag. Time & Date
Minimum magnitude displayed is 2.5.

Coastal Water Temperatures

Place Temperature

Stations

Nearby Weather Stations

Station Location Temp. Windchill Dew Point Humidity Wind Precip. Elev Updated Type
                   

Watches & Warnings

Gale Watch
Issued: 4:20 PM EST Jan. 20, 2017 – National Weather Service

... Gale watch in effect from Monday morning through late Monday
night...

The National Weather Service in Taunton has issued a gale watch...
which is in effect from Monday morning through late Monday night.

* Winds and seas... east winds 20 to 25 kt with gusts up to 35
kt. Seas 4 to 7 feet.

Precautionary/preparedness actions...

A gale watch is issued when the risk of gale force winds of 34 to
47 knots has significantly increased... but the specific timing
and/or location is still uncertain. It is intended to provide
additional lead time for mariners who may wish to consider
altering their plans.